Time;durP1;ratioP1;P1;durP2;ratioP2;P2;SDS_P1;SDS_P2;PMS_P1;PMS_P2;Temp;Humidity;BMP_temperature;BMP_pressure;BME280_temperature;BME280_humidity;BME280_pressure;Samples;Min_cycle;Max_cycle;Signal;HPM_P1;HPM_P2
2023/12/26 00:00:13;;;;;;;7.10;1.00;;;;;;;-145.18;100.00;47064.75;5043438;28;20091;-81
2023/12/26 00:02:39;;;;;;;6.60;0.93;;;;;;;-145.18;100.00;47068.66;5038734;28;20057;-82
2023/12/26 00:05:05;;;;;;;5.33;1.03;;;;;;;-145.18;100.00;47068.66;5041526;28;20033;-82
2023/12/26 00:07:30;;;;;;;6.23;1.03;;;;;;;-145.18;100.00;47070.63;5047891;28;20037;-81
2023/12/26 00:09:56;;;;;;;8.27;1.63;;;;;;;-145.18;100.00;47070.63;5040464;28;20687;-81
2023/12/26 00:12:24;;;;;;;12.80;1.60;;;;;;;-145.18;100.00;47068.66;5041931;28;20100;-81
2023/12/26 00:14:49;;;;;;;6.07;1.27;;;;;;;-145.18;100.00;47070.63;5035825;28;20402;-81
2023/12/26 00:17:15;;;;;;;8.67;1.80;;;;;;;-145.18;100.00;47074.53;5039571;28;20021;-81
2023/12/26 00:19:40;;;;;;;9.03;2.90;;;;;;;-145.18;100.00;47072.56;5054397;28;20116;-81
2023/12/26 00:22:06;;;;;;;4.10;1.10;;;;;;;-145.18;100.00;47074.53;5047786;28;20037;-82
2023/12/26 00:24:32;;;;;;;6.83;1.20;;;;;;;-145.18;100.00;47074.53;5044181;28;20037;-81
2023/12/26 00:26:58;;;;;;;6.83;1.30;;;;;;;-145.18;100.00;47070.63;5038305;28;20016;-81
2023/12/26 00:29:24;;;;;;;3.27;1.47;;;;;;;-145.18;100.00;47074.53;5036050;28;20095;-82
2023/12/26 00:31:50;;;;;;;7.20;1.30;;;;;;;-145.18;100.00;47074.53;5048359;28;20060;-81
2023/12/26 00:34:15;;;;;;;6.60;1.83;;;;;;;-145.18;100.00;47074.53;5042566;28;20177;-81
2023/12/26 00:36:41;;;;;;;6.37;1.63;;;;;;;-145.18;100.00;47074.53;5043220;28;20025;-81
2023/12/26 00:39:07;;;;;;;8.17;1.63;;;;;;;-145.18;100.00;47076.47;5040626;28;20112;-81
2023/12/26 00:41:32;;;;;;;7.03;1.90;;;;;;;-145.18;100.00;47072.56;5058238;28;20520;-82
2023/12/26 00:43:57;;;;;;;3.60;1.50;;;;;;;-145.18;100.00;47078.44;5040371;28;20021;-82
2023/12/26 00:46:23;;;;;;;4.90;1.80;;;;;;;-145.18;100.00;47072.56;5043170;28;20029;-81
2023/12/26 00:48:48;;;;;;;4.83;1.53;;;;;;;-145.18;100.00;47068.66;5047167;28;20029;-81
2023/12/26 00:51:14;;;;;;;7.63;1.70;;;;;;;-145.18;100.00;47070.63;5039340;28;20393;-82
2023/12/26 00:53:39;;;;;;;3.40;2.10;;;;;;;-145.18;100.00;47070.63;5043646;28;20025;-81
2023/12/26 00:56:05;;;;;;;6.13;1.90;;;;;;;-145.18;100.00;47072.56;5050875;28;20025;-81
2023/12/26 00:58:30;;;;;;;7.37;2.23;;;;;;;-145.18;100.00;47072.56;5040571;28;20560;-82
2023/12/26 01:00:56;;;;;;;6.00;2.10;;;;;;;-145.18;100.00;47074.53;5044132;28;20045;-82
2023/12/26 01:03:22;;;;;;;5.93;1.80;;;;;;;-145.18;100.00;47070.63;5044510;28;20497;-81
2023/12/26 01:05:50;;;;;;;7.57;2.30;;;;;;;-145.18;100.00;47070.63;5057510;28;20033;-81
2023/12/26 01:08:17;;;;;;;7.63;2.00;;;;;;;-145.18;100.00;47074.53;5037391;28;20120;-80
2023/12/26 01:10:42;;;;;;;5.40;1.60;;;;;;;-145.18;100.00;47072.56;5052294;28;20049;-80
2023/12/26 01:13:08;;;;;;;8.40;2.20;;;;;;;-145.18;100.00;47072.56;5051442;28;20026;-81
2023/12/26 01:15:33;;;;;;;9.73;2.20;;;;;;;-145.18;100.00;47070.63;5036605;28;20072;-80
2023/12/26 01:17:59;;;;;;;5.23;1.60;;;;;;;-145.18;100.00;47068.66;5036220;28;20068;-80
2023/12/26 01:20:24;;;;;;;3.40;1.60;;;;;;;-145.18;100.00;47070.63;5034120;28;20046;-79
2023/12/26 01:22:50;;;;;;;3.87;1.87;;;;;;;-145.18;100.00;47074.53;5034834;28;20068;-79
2023/12/26 01:25:15;;;;;;;4.33;1.27;;;;;;;-145.18;100.00;47068.66;5033431;28;20435;-79
2023/12/26 01:27:40;;;;;;;3.80;1.37;;;;;;;-145.18;100.00;47070.63;5050539;28;20090;-79
2023/12/26 01:30:06;;;;;;;1.43;1.20;;;;;;;-145.18;100.00;47070.63;5049891;28;20032;-79
2023/12/26 01:32:32;;;;;;;2.27;1.00;;;;;;;-145.18;100.00;47066.72;5037030;28;20053;-79
2023/12/26 01:34:58;;;;;;;8.93;1.50;;;;;;;-145.18;100.00;47068.66;5048918;28;20143;-79
2023/12/26 01:37:24;;;;;;;5.93;1.57;;;;;;;-145.18;100.00;47070.63;5033975;28;20034;-79
2023/12/26 01:39:50;;;;;;;3.80;1.50;;;;;;;-145.18;100.00;47064.75;5042205;28;20060;-79
2023/12/26 01:42:15;;;;;;;5.57;1.50;;;;;;;-145.18;100.00;47066.72;5048349;28;20029;-80
2023/12/26 01:44:41;;;;;;;5.27;1.00;;;;;;;-145.18;100.00;47062.81;5039757;28;20032;-80
2023/12/26 01:47:06;;;;;;;4.07;1.30;;;;;;;-145.18;100.00;47074.53;5048040;28;20048;-80
2023/12/26 01:49:32;;;;;;;5.80;1.37;;;;;;;-145.18;100.00;47066.72;5040313;28;20123;-80
2023/12/26 01:51:58;;;;;;;6.30;1.00;;;;;;;-145.18;100.00;47064.75;5044671;28;20074;-79
2023/12/26 01:54:29;;;;;;;5.20;1.10;;;;;;;-145.18;100.00;47066.72;5045324;28;20044;-80
2023/12/26 01:56:55;;;;;;;5.00;1.23;;;;;;;-145.18;100.00;47066.72;5042831;28;20032;-80
2023/12/26 01:59:21;;;;;;;6.83;1.40;;;;;;;-145.18;100.00;47064.75;5038722;28;20036;-80
2023/12/26 02:01:46;;;;;;;5.27;1.23;;;;;;;-145.18;100.00;47066.72;5050650;28;20431;-79
2023/12/26 02:04:12;;;;;;;6.10;1.10;;;;;;;-145.18;100.00;47064.75;5039751;28;20037;-79
2023/12/26 02:06:38;;;;;;;4.63;0.80;;;;;;;-145.18;100.00;47062.81;5050955;28;20033;-79
2023/12/26 02:09:04;;;;;;;4.20;1.07;;;;;;;-145.18;100.00;47066.72;5051392;28;20056;-80
2023/12/26 02:11:29;;;;;;;9.87;2.50;;;;;;;-145.18;100.00;47064.75;5049314;28;20029;-79
2023/12/26 02:13:55;;;;;;;11.63;1.50;;;;;;;-145.18;100.00;47062.81;5050714;28;20065;-79
2023/12/26 02:16:25;;;;;;;5.20;1.13;;;;;;;-145.18;100.00;47068.66;5044469;28;20063;-79
2023/12/26 02:18:52;;;;;;;8.90;1.60;;;;;;;-145.18;100.00;47066.72;5044038;28;20029;-79
2023/12/26 02:21:17;;;;;;;9.67;1.53;;;;;;;-145.18;100.00;47066.72;5046052;28;20511;-79
2023/12/26 02:23:44;;;;;;;10.37;2.53;;;;;;;-145.18;100.00;47060.84;5047857;28;20033;-80
2023/12/26 02:26:11;;;;;;;9.80;1.13;;;;;;;-145.18;100.00;47062.81;5046989;28;20555;-79
2023/12/26 02:28:37;;;;;;;6.00;1.93;;;;;;;-145.18;100.00;47062.81;5061777;28;20116;-79
2023/12/26 02:31:04;;;;;;;12.60;2.43;;;;;;;-145.18;100.00;47062.81;5050221;28;20053;-79
2023/12/26 02:33:30;;;;;;;10.40;1.23;;;;;;;-145.18;100.00;47058.91;5046305;28;20082;-80
2023/12/26 02:35:57;;;;;;;10.43;1.60;;;;;;;-145.18;100.00;47062.81;5047917;28;20033;-81
2023/12/26 02:38:22;;;;;;;9.67;1.90;;;;;;;-145.18;100.00;47062.81;5047840;28;20033;-79
2023/12/26 02:40:52;;;;;;;9.77;1.37;;;;;;;-145.18;100.00;47058.91;5044913;28;20037;-79
2023/12/26 02:43:21;;;;;;;13.97;1.50;;;;;;;-145.18;100.00;47060.84;5045090;28;20108;-79
2023/12/26 02:45:48;;;;;;;8.93;1.33;;;;;;;-145.18;100.00;47058.91;5049236;28;20452;-79
2023/12/26 02:48:17;;;;;;;17.53;1.80;;;;;;;-145.18;100.00;47056.94;5050739;28;20032;-79
2023/12/26 02:50:43;;;;;;;15.87;1.80;;;;;;;-145.18;100.00;47055.00;5049075;28;20039;-79
2023/12/26 02:53:09;;;;;;;17.57;2.17;;;;;;;-145.18;100.00;47053.03;5053772;28;20029;-79
2023/12/26 02:55:34;;;;;;;11.70;1.67;;;;;;;-145.18;100.00;47051.09;5047922;28;20033;-80
2023/12/26 02:58:00;;;;;;;16.93;2.20;;;;;;;-145.18;100.00;47053.03;5040063;28;20152;-80
2023/12/26 03:00:25;;;;;;;10.47;1.80;;;;;;;-145.18;100.00;47045.22;5050752;28;20070;-79
2023/12/26 03:02:50;;;;;;;15.50;1.83;;;;;;;-145.18;100.00;47047.19;5043359;28;20033;-79
2023/12/26 03:05:16;;;;;;;12.47;2.00;;;;;;;-145.18;100.00;47041.31;5047922;28;20433;-79
2023/12/26 03:07:41;;;;;;;12.70;1.20;;;;;;;-145.18;100.00;47041.31;5040182;28;20045;-80
2023/12/26 03:10:09;;;;;;;12.87;1.50;;;;;;;-145.18;100.00;47039.34;5042896;28;20593;-80
2023/12/26 03:12:37;;;;;;;14.63;1.70;;;;;;;-145.18;100.00;47029.59;5042449;28;20112;-80
2023/12/26 03:15:04;;;;;;;10.03;2.00;;;;;;;-145.18;100.00;47025.69;5041311;28;20033;-81
2023/12/26 03:17:29;;;;;;;8.83;1.60;;;;;;;-145.18;100.00;47023.72;5040686;28;20397;-79
2023/12/26 03:19:55;;;;;;;12.47;3.03;;;;;;;-145.18;100.00;47019.81;5050613;28;20040;-80
2023/12/26 03:22:20;;;;;;;5.93;1.10;;;;;;;-145.18;100.00;47017.88;5049933;28;20029;-80
2023/12/26 03:24:46;;;;;;;6.10;1.17;;;;;;;-145.18;100.00;47010.06;5039990;28;20393;-80
2023/12/26 03:27:12;;;;;;;7.20;0.83;;;;;;;-145.18;100.00;47004.19;5046051;28;20033;-81
2023/12/26 03:29:38;;;;;;;7.70;1.10;;;;;;;-145.18;100.00;47000.28;5046208;28;20072;-80
2023/12/26 03:32:04;;;;;;;8.70;1.20;;;;;;;-145.18;100.00;46990.53;5051603;28;20432;-80
2023/12/26 03:34:29;;;;;;;8.73;0.93;;;;;;;-145.18;100.00;46980.75;5052513;28;20034;-80
2023/12/26 03:36:55;;;;;;;3.70;0.73;;;;;;;-145.18;100.00;46972.94;5053490;28;20091;-80
2023/12/26 03:39:20;;;;;;;7.50;1.03;;;;;;;-145.18;100.00;46972.94;5053882;28;20033;-81
2023/12/26 03:41:48;;;;;;;6.13;1.20;;;;;;;-145.18;100.00;46963.19;5052553;28;20055;-81
2023/12/26 03:44:15;;;;;;;3.70;0.80;;;;;;;-145.18;100.00;46957.31;5052260;28;20052;-80
2023/12/26 03:46:41;;;;;;;6.80;1.50;;;;;;;-145.18;100.00;46947.53;5050976;28;20430;-80
2023/12/26 03:49:07;;;;;;;8.70;1.23;;;;;;;-145.18;100.00;46949.50;5038897;28;20029;-80
2023/12/26 03:51:32;;;;;;;7.67;1.00;;;;;;;-145.18;100.00;46939.72;5033761;28;20036;-80
2023/12/26 03:53:57;;;;;;;4.67;0.83;;;;;;;-145.18;100.00;46933.88;5046019;28;20059;-80
2023/12/26 03:56:23;;;;;;;12.67;1.43;;;;;;;-145.18;100.00;46931.91;5035172;28;20026;-80
2023/12/26 03:58:48;;;;;;;10.60;1.97;;;;;;;-145.18;100.00;46935.81;5046474;28;20033;-80
2023/12/26 04:01:14;;;;;;;6.30;0.93;;;;;;;-145.18;100.00;46929.97;5046695;28;20025;-80
2023/12/26 04:03:39;;;;;;;7.13;1.00;;;;;;;-145.18;100.00;46926.06;5036723;28;20802;-80
2023/12/26 04:06:05;;;;;;;6.13;1.00;;;;;;;-145.18;100.00;46924.09;5050192;28;20025;-80
2023/12/26 04:08:30;;;;;;;4.53;0.90;;;;;;;-145.18;100.00;46920.19;5053405;28;20383;-80
2023/12/26 04:10:56;;;;;;;5.07;1.17;;;;;;;-145.18;100.00;46916.28;5036672;28;20028;-81
2023/12/26 04:13:21;;;;;;;7.87;1.37;;;;;;;-145.18;100.00;46920.19;5059031;28;20041;-80
2023/12/26 04:15:46;;;;;;;8.77;1.20;;;;;;;-145.18;100.00;46914.34;5052546;28;20029;-80
2023/12/26 04:18:13;;;;;;;6.67;1.20;;;;;;;-145.18;100.00;46916.28;5053554;28;20040;-80
2023/12/26 04:20:39;;;;;;;8.07;1.60;;;;;;;-145.18;100.00;46912.38;5037169;28;20033;-81
2023/12/26 04:23:04;;;;;;;5.97;1.60;;;;;;;-145.18;100.00;46914.34;5043600;28;20543;-81
2023/12/26 04:25:30;;;;;;;11.30;0.93;;;;;;;-145.18;100.00;46910.44;5037300;28;20026;-81
2023/12/26 04:27:55;;;;;;;11.30;1.37;;;;;;;-145.18;100.00;46908.47;5032416;28;20398;-80
2023/12/26 04:30:21;;;;;;;7.33;1.07;;;;;;;-145.18;100.00;46902.63;5034056;28;20017;-80
2023/12/26 04:32:46;;;;;;;8.37;0.90;;;;;;;-145.18;100.00;46896.75;5040658;28;20040;-80
2023/12/26 04:35:12;;;;;;;8.17;0.90;;;;;;;-145.18;100.00;46888.94;5038456;28;20481;-80
2023/12/26 04:37:37;;;;;;;2.97;0.90;;;;;;;-145.18;100.00;46879.19;5035007;28;20367;-80
2023/12/26 04:40:03;;;;;;;8.60;1.27;;;;;;;-145.18;100.00;46867.44;5036859;28;20043;-80
2023/12/26 04:42:28;;;;;;;9.10;1.50;;;;;;;-145.18;100.00;46857.69;5034870;28;20545;-80
2023/12/26 04:44:54;;;;;;;6.87;0.90;;;;;;;-145.18;100.00;46857.69;5037953;28;20039;-80
2023/12/26 04:47:19;;;;;;;5.60;0.80;;;;;;;-145.18;100.00;46844.00;5036216;28;20041;-85
2023/12/26 04:49:45;;;;;;;11.17;1.17;;;;;;;-145.18;100.00;46844.00;5047122;28;20030;-85
2023/12/26 04:52:11;;;;;;;11.37;1.10;;;;;;;-145.18;100.00;46840.09;5049896;28;20098;-85
2023/12/26 04:54:36;;;;;;;5.73;0.97;;;;;;;-145.18;100.00;46832.28;5046227;28;20060;-85
2023/12/26 04:57:02;;;;;;;8.13;1.20;;;;;;;-145.18;100.00;46834.25;5039434;28;20112;-84
2023/12/26 04:59:27;;;;;;;9.53;1.80;;;;;;;-145.18;100.00;46830.34;5049896;28;20546;-85
2023/12/26 05:01:52;;;;;;;10.03;1.43;;;;;;;-145.18;100.00;46824.47;5048477;28;20428;-85
2023/12/26 05:04:18;;;;;;;8.80;0.97;;;;;;;-145.18;100.00;46830.34;5050663;28;20040;-85
2023/12/26 05:06:43;;;;;;;10.30;1.10;;;;;;;-145.18;100.00;46834.25;5067685;28;20029;-86
2023/12/26 05:09:09;;;;;;;10.20;1.97;;;;;;;-145.18;100.00;46832.28;5050510;28;20048;-85
2023/12/26 05:11:34;;;;;;;8.17;0.83;;;;;;;-145.18;100.00;46832.28;5051853;28;20029;-85
2023/12/26 05:14:00;;;;;;;8.43;0.97;;;;;;;-145.18;100.00;46838.16;5051625;28;20029;-86
2023/12/26 05:16:25;;;;;;;7.63;0.80;;;;;;;-145.18;100.00;46834.25;5039732;28;20025;-86
2023/12/26 05:18:51;;;;;;;8.73;0.77;;;;;;;-145.18;100.00;46826.44;5052489;28;20032;-85
2023/12/26 05:21:21;;;;;;;7.63;1.10;;;;;;;-145.18;100.00;46824.47;5047343;28;20037;-86
2023/12/26 05:23:47;;;;;;;7.33;1.77;;;;;;;-145.18;100.00;46824.47;5043465;28;20049;-86
2023/12/26 05:26:14;;;;;;;8.83;1.37;;;;;;;-145.18;100.00;46826.44;5046314;28;20389;-86
2023/12/26 05:28:39;;;;;;;8.13;0.97;;;;;;;-145.18;100.00;46822.53;5048717;28;20029;-84
2023/12/26 05:31:05;;;;;;;4.90;0.90;;;;;;;-145.18;100.00;46822.53;5048244;28;20122;-86
2023/12/26 05:33:31;;;;;;;11.73;1.57;;;;;;;-145.18;100.00;46816.66;5046173;28;20037;-86
2023/12/26 05:35:57;;;;;;;5.13;0.73;;;;;;;-145.18;100.00;46812.75;5060012;28;20597;-86
2023/12/26 05:38:22;;;;;;;9.13;1.07;;;;;;;-145.18;100.00;46814.72;5048618;28;20125;-87
2023/12/26 05:40:48;;;;;;;8.20;1.27;;;;;;;-145.18;100.00;46808.84;5045621;28;20049;-86
2023/12/26 05:43:13;;;;;;;14.00;1.37;;;;;;;-145.18;100.00;46808.84;5057293;28;20112;-86
2023/12/26 05:45:38;;;;;;;8.90;1.83;;;;;;;-145.18;100.00;46801.03;5044173;28;20026;-85
2023/12/26 05:48:05;;;;;;;12.20;1.00;;;;;;;-145.18;100.00;46804.94;5043862;28;20025;-85
2023/12/26 05:50:31;;;;;;;9.47;1.10;;;;;;;-145.18;100.00;46806.91;5045572;28;20026;-85
2023/12/26 05:52:56;;;;;;;13.27;2.63;;;;;;;-145.18;100.00;46801.03;5044826;28;20037;-85
2023/12/26 05:55:22;;;;;;;13.03;0.97;;;;;;;-145.18;100.00;46804.94;5047494;28;20056;-86
2023/12/26 05:57:47;;;;;;;6.43;1.13;;;;;;;-145.18;100.00;46810.81;5047368;28;20033;-80
2023/12/26 06:00:14;;;;;;;9.53;0.90;;;;;;;-145.18;100.00;46816.66;5047227;28;20707;-80
2023/12/26 06:02:39;;;;;;;15.43;1.50;;;;;;;-145.18;100.00;46824.47;5041152;28;20036;-80
2023/12/26 06:05:06;;;;;;;10.97;1.53;;;;;;;-145.18;100.00;46826.44;5068100;28;20025;-80
2023/12/26 06:07:31;;;;;;;12.50;1.40;;;;;;;-145.18;100.00;46830.34;5042220;28;20072;-80
2023/12/26 06:09:57;;;;;;;8.80;1.93;;;;;;;-145.18;100.00;46838.16;5053322;28;20083;-81
2023/12/26 06:12:23;;;;;;;10.37;0.97;;;;;;;-145.18;100.00;46844.00;5052633;28;20037;-80
2023/12/26 06:14:48;;;;;;;17.30;2.63;;;;;;;-145.18;100.00;46855.72;5038413;28;20052;-80
2023/12/26 06:17:13;;;;;;;11.60;1.30;;;;;;;-145.18;100.00;46853.78;5046114;28;20033;-77
2023/12/26 06:19:39;;;;;;;6.10;1.30;;;;;;;-145.18;100.00;46851.81;5049851;28;20132;-81
2023/12/26 06:22:04;;;;;;;7.40;1.33;;;;;;;-145.18;100.00;46845.97;5053267;28;20029;-80
2023/12/26 06:24:29;;;;;;;13.50;1.73;;;;;;;-145.18;100.00;46844.00;5048205;28;20439;-80
2023/12/26 06:26:55;;;;;;;9.13;1.53;;;;;;;-145.18;100.00;46844.00;5054074;28;20033;-81
2023/12/26 06:29:20;;;;;;;11.50;1.53;;;;;;;-145.18;100.00;46842.06;5050140;28;20021;-80
2023/12/26 06:31:46;;;;;;;9.00;1.70;;;;;;;-145.18;100.00;46838.16;5047111;28;20036;-81
2023/12/26 06:34:11;;;;;;;9.63;1.50;;;;;;;-145.18;100.00;46836.19;5052457;28;20124;-80
2023/12/26 06:36:37;;;;;;;12.73;1.80;;;;;;;-145.18;100.00;46826.44;5048379;28;20397;-80
2023/12/26 06:39:03;;;;;;;8.27;1.37;;;;;;;-145.18;100.00;46826.44;5046742;28;20037;-80
2023/12/26 06:41:29;;;;;;;9.43;1.53;;;;;;;-145.18;100.00;46820.56;5046990;28;20034;-80
2023/12/26 06:43:55;;;;;;;13.97;1.67;;;;;;;-145.18;100.00;46824.47;5050474;28;20047;-80
2023/12/26 06:46:21;;;;;;;6.70;0.90;;;;;;;-145.18;100.00;46818.63;5049516;28;20308;-80
2023/12/26 06:48:47;;;;;;;6.80;1.67;;;;;;;-145.18;100.00;46820.56;5050594;28;20096;-81
2023/12/26 06:51:15;;;;;;;8.90;0.93;;;;;;;-145.18;100.00;46814.72;5047482;28;20466;-82
2023/12/26 06:53:44;;;;;;;8.87;1.40;;;;;;;-145.18;100.00;46810.81;5039633;28;20034;-81
2023/12/26 06:56:09;;;;;;;18.43;2.20;;;;;;;-145.18;100.00;46808.84;5040759;28;20139;-80
2023/12/26 06:58:35;;;;;;;9.83;1.87;;;;;;;-145.18;100.00;46803.00;5052303;28;20770;-80
2023/12/26 07:01:08;;;;;;;7.43;1.73;;;;;;;-145.18;100.00;46803.00;5051167;28;20048;-80
2023/12/26 07:03:34;;;;;;;9.30;1.47;;;;;;;-145.18;100.00;46801.03;5042954;28;20025;-80
2023/12/26 07:05:59;;;;;;;7.70;1.20;;;;;;;-145.18;100.00;46803.00;5040391;28;20461;-84
2023/12/26 07:08:24;;;;;;;10.77;1.23;;;;;;;-145.18;100.00;46803.00;5045799;28;20060;-79
2023/12/26 07:10:50;;;;;;;15.87;2.13;;;;;;;-145.18;100.00;46803.00;5044791;28;20507;-80
2023/12/26 07:13:15;;;;;;;14.10;1.80;;;;;;;-145.18;100.00;46803.00;5039309;28;20030;-80
2023/12/26 07:15:42;;;;;;;9.77;1.10;;;;;;;-145.18;100.00;46806.91;5043025;28;20474;-79
2023/12/26 07:18:09;;;;;;;10.03;1.33;;;;;;;-145.18;100.00;46812.75;5040475;28;20038;-82
2023/12/26 07:20:34;;;;;;;13.67;1.17;;;;;;;-145.18;100.00;46814.72;5039896;28;20543;-80
2023/12/26 07:23:00;;;;;;;6.87;1.43;;;;;;;-145.18;100.00;46810.81;5053236;28;20273;-80
2023/12/26 07:25:25;;;;;;;9.97;1.40;;;;;;;-145.18;100.00;46810.81;5043358;28;20430;-81
2023/12/26 07:27:51;;;;;;;14.50;1.87;;;;;;;-145.18;100.00;46814.72;5048246;28;20397;-81
2023/12/26 07:30:16;;;;;;;17.57;2.77;;;;;;;-145.18;100.00;46816.66;5044670;28;20043;-81
2023/12/26 07:32:42;;;;;;;9.30;0.93;;;;;;;-145.18;100.00;46812.75;5037401;28;20030;-82
2023/12/26 07:35:07;;;;;;;11.17;0.97;;;;;;;-145.18;100.00;46814.72;5050065;28;20124;-81
2023/12/26 07:37:33;;;;;;;14.90;1.70;;;;;;;-145.18;100.00;46814.72;5037761;28;20034;-80
2023/12/26 07:39:58;;;;;;;10.47;1.20;;;;;;;-145.18;100.00;46812.75;5040779;28;20377;-80
2023/12/26 07:42:24;;;;;;;12.07;1.70;;;;;;;-145.18;100.00;46820.56;5039201;28;20029;-80
2023/12/26 07:44:49;;;;;;;15.43;1.50;;;;;;;-145.18;100.00;46822.53;5054653;28;20128;-80
2023/12/26 07:47:15;;;;;;;16.83;2.17;;;;;;;-145.18;100.00;46830.34;5045436;28;20459;-80
2023/12/26 07:49:40;;;;;;;8.37;1.33;;;;;;;-145.18;100.00;46824.47;5037204;28;20466;-81
2023/12/26 07:52:06;;;;;;;17.57;2.00;;;;;;;-145.18;100.00;46826.44;5051653;28;20035;-81
2023/12/26 07:54:31;;;;;;;8.50;1.03;;;;;;;-145.18;100.00;46834.25;5045937;28;20043;-81
2023/12/26 07:56:57;;;;;;;11.57;2.33;;;;;;;-145.18;100.00;46836.19;5041958;28;20068;-81
2023/12/26 07:59:22;;;;;;;9.70;1.40;;;;;;;-145.18;100.00;46840.09;5048366;28;20120;-81
2023/12/26 08:01:47;;;;;;;12.00;1.83;;;;;;;-145.18;100.00;46844.00;5040761;28;20478;-81
2023/12/26 08:04:13;;;;;;;13.93;1.60;;;;;;;-145.18;100.00;46849.88;5039840;28;20026;-80
2023/12/26 08:06:38;;;;;;;10.80;1.90;;;;;;;-145.18;100.00;46855.72;5051888;28;20083;-80
2023/12/26 08:09:04;;;;;;;14.87;1.70;;;;;;;-145.18;100.00;46859.63;5050288;28;20049;-80
2023/12/26 08:11:29;;;;;;;8.10;2.13;;;;;;;-145.18;100.00;46859.63;5068117;28;20087;-81
2023/12/26 08:13:55;;;;;;;11.57;1.50;;;;;;;-145.18;100.00;46861.59;5038881;28;20037;-80
2023/12/26 08:16:20;;;;;;;13.30;1.70;;;;;;;-145.18;100.00;46859.63;5048995;28;20102;-80
2023/12/26 08:18:46;;;;;;;14.13;1.73;;;;;;;-145.18;100.00;46861.59;5044649;28;20040;-80
2023/12/26 08:21:11;;;;;;;8.00;2.70;;;;;;;-145.18;100.00;46851.81;5052625;28;20032;-80
2023/12/26 08:23:36;;;;;;;12.87;2.13;;;;;;;-145.18;100.00;46851.81;5053612;28;20048;-81
2023/12/26 08:26:06;;;;;;;7.50;1.40;;;;;;;-145.18;100.00;46849.88;5051619;28;20170;-88
2023/12/26 08:28:32;;;;;;;12.50;2.13;;;;;;;-145.18;100.00;46847.91;5040479;28;20040;-79
2023/12/26 08:30:57;;;;;;;10.90;1.43;;;;;;;-145.18;100.00;46851.81;5049225;28;20041;-79
2023/12/26 08:33:24;;;;;;;12.97;1.50;;;;;;;-145.18;100.00;46845.97;5050839;28;20028;-80
2023/12/26 08:35:50;;;;;;;12.27;1.60;;;;;;;-145.18;100.00;46851.81;5051073;28;20025;-79
2023/12/26 08:38:15;;;;;;;9.17;1.50;;;;;;;-145.18;100.00;46857.69;5036505;28;20281;-79
2023/12/26 08:40:41;;;;;;;10.00;2.23;;;;;;;-145.18;100.00;46849.88;5048533;28;20414;-79
2023/12/26 08:43:06;;;;;;;16.67;2.73;;;;;;;-145.18;100.00;46857.69;5042769;28;20037;-79
2023/12/26 08:45:32;;;;;;;11.27;1.80;;;;;;;-145.18;100.00;46853.78;5059390;28;20047;-79
2023/12/26 08:47:59;;;;;;;11.40;1.97;;;;;;;-145.18;100.00;46859.63;5046235;28;20032;-80
2023/12/26 08:50:24;;;;;;;25.07;2.67;;;;;;;-145.18;100.00;46861.59;5053860;28;20029;-79
2023/12/26 08:52:50;;;;;;;11.60;1.80;;;;;;;-145.18;100.00;46857.69;5038598;28;20052;-79
2023/12/26 08:55:17;;;;;;;7.37;1.37;;;;;;;-145.18;100.00;46851.81;5047965;28;20367;-78
2023/12/26 08:57:43;;;;;;;14.27;1.53;;;;;;;-145.18;100.00;46849.88;5051087;28;20033;-79
2023/12/26 09:00:10;;;;;;;11.17;1.50;;;;;;;-145.18;100.00;46845.97;5039141;28;21774;-79
2023/12/26 09:02:36;;;;;;;22.50;2.33;;;;;;;-145.18;100.00;46845.97;5049531;28;20029;-78
2023/12/26 09:05:02;;;;;;;10.57;1.30;;;;;;;-145.18;100.00;46847.91;5041508;28;20622;-79
2023/12/26 09:07:29;;;;;;;12.23;1.70;;;;;;;-145.18;100.00;46840.09;5043671;28;20049;-79
2023/12/26 09:09:55;;;;;;;23.97;2.20;;;;;;;-145.18;100.00;46847.91;5047991;28;20029;-79
2023/12/26 09:12:20;;;;;;;12.23;1.47;;;;;;;-145.18;100.00;46840.09;5040883;28;20768;-80
2023/12/26 09:14:46;;;;;;;16.90;2.80;;;;;;;-145.18;100.00;46840.09;5030237;28;20029;-79
2023/12/26 09:17:11;;;;;;;12.83;2.03;;;;;;;-145.18;100.00;46840.09;5044944;28;20478;-78
2023/12/26 09:19:36;;;;;;;12.43;1.47;;;;;;;-145.18;100.00;46844.00;5046292;28;21219;-76
2023/12/26 09:22:02;;;;;;;11.20;1.83;;;;;;;-145.18;100.00;46847.91;5040646;28;20504;-79
2023/12/26 09:24:27;;;;;;;9.40;1.67;;;;;;;-145.18;100.00;46849.88;5033663;28;20041;-78
2023/12/26 09:26:53;;;;;;;13.87;2.20;;;;;;;-145.18;100.00;46842.06;5036448;28;20348;-78
2023/12/26 09:29:18;;;;;;;12.13;1.13;;;;;;;-145.18;100.00;46847.91;5039162;28;20025;-79
2023/12/26 09:31:44;;;;;;;13.07;2.27;;;;;;;-145.18;100.00;46845.97;5041160;28;20041;-79
2023/12/26 09:34:10;;;;;;;19.40;2.00;;;;;;;-145.18;100.00;46840.09;5048416;28;20025;-79
2023/12/26 09:36:35;;;;;;;9.87;1.03;;;;;;;-145.18;100.00;46844.00;5051662;28;20076;-87
2023/12/26 09:39:01;;;;;;;14.67;1.70;;;;;;;-145.18;100.00;46840.09;5022250;28;20448;-88
2023/12/26 09:41:26;;;;;;;15.97;1.70;;;;;;;-145.18;100.00;46840.09;5062364;28;20065;-87
2023/12/26 09:43:53;;;;;;;11.30;2.53;;;;;;;-145.18;100.00;46842.06;5051046;28;20524;-87
2023/12/26 09:46:19;;;;;;;17.70;2.83;;;;;;;-145.18;100.00;46845.97;5031457;28;20045;-87
2023/12/26 09:48:45;;;;;;;8.97;1.20;;;;;;;-145.18;100.00;46838.16;5041346;28;20078;-86
2023/12/26 09:51:17;;;;;;;16.87;2.00;;;;;;;-145.18;100.00;46834.25;5044947;28;20041;-87
2023/12/26 09:53:44;;;;;;;11.40;1.33;;;;;;;-145.18;100.00;46834.25;5051243;28;20044;-88
2023/12/26 09:56:10;;;;;;;19.70;2.67;;;;;;;-145.18;100.00;46828.38;5049686;28;20033;-87
2023/12/26 09:58:42;;;;;;;14.07;1.87;;;;;;;-145.18;100.00;46828.38;5067107;28;20033;-90
2023/12/26 10:01:11;;;;;;;15.73;2.10;;;;;;;-145.18;100.00;46828.38;5049778;28;20445;-88
2023/12/26 10:03:37;;;;;;;16.43;1.80;;;;;;;-145.18;100.00;46830.34;5052440;28;20088;-87
2023/12/26 10:06:04;;;;;;;12.23;1.87;;;;;;;-145.18;100.00;46820.56;5050096;28;20486;-88
2023/12/26 10:08:30;;;;;;;13.63;1.67;;;;;;;-145.18;100.00;46824.47;5051268;28;20184;-87
2023/12/26 10:10:56;;;;;;;14.80;1.47;;;;;;;-145.18;100.00;46822.53;5051403;28;20021;-88
2023/12/26 10:13:22;;;;;;;21.17;2.43;;;;;;;-145.18;100.00;46824.47;5047696;28;20150;-88
2023/12/26 10:15:47;;;;;;;13.27;1.90;;;;;;;-145.18;100.00;46824.47;5050455;28;20068;-87
2023/12/26 10:18:14;;;;;;;14.70;2.43;;;;;;;-145.18;100.00;46822.53;5051039;28;20033;-89
2023/12/26 10:20:39;;;;;;;9.90;1.90;;;;;;;-145.18;100.00;46820.56;5040170;28;20040;-90
2023/12/26 10:23:04;;;;;;;16.43;1.97;;;;;;;-145.18;100.00;46814.72;5056699;28;20025;-90
2023/12/26 10:25:30;;;;;;;15.73;1.90;;;;;;;-145.18;100.00;46818.63;5052732;28;20119;-89
2023/12/26 10:27:56;;;;;;;16.40;1.73;;;;;;;-145.18;100.00;46810.81;5051644;28;20033;-87
2023/12/26 10:30:25;;;;;;;19.17;1.73;;;;;;;-145.18;100.00;46810.81;5052667;28;20025;-89
2023/12/26 10:33:03;;;;;;;8.27;1.13;;;;;;;-145.18;100.00;46808.84;5054796;28;20055;-88
2023/12/26 10:35:30;;;;;;;18.57;2.53;;;;;;;-145.18;100.00;46808.84;5055466;28;20047;-89
2023/12/26 10:37:56;;;;;;;14.40;1.90;;;;;;;-145.18;100.00;46804.94;5054475;28;20052;-88
2023/12/26 10:40:22;;;;;;;10.80;1.77;;;;;;;-145.18;100.00;46804.94;5052105;28;20055;-89
2023/12/26 10:42:53;;;;;;;13.97;1.77;;;;;;;-145.18;100.00;46804.94;5050365;28;20470;-89
2023/12/26 10:45:19;;;;;;;20.80;3.23;;;;;;;-145.18;100.00;46804.94;5042373;28;20039;-86
2023/12/26 10:47:49;;;;;;;9.10;1.47;;;;;;;-145.18;100.00;46803.00;5047990;28;20025;-87
2023/12/26 10:50:18;;;;;;;13.03;1.63;;;;;;;-145.18;100.00;46804.94;5032637;28;20025;-86
2023/12/26 10:53:16;;;;;;;16.07;2.93;;;;;;;-145.18;100.00;46806.91;5041919;28;20051;-86
2023/12/26 10:55:45;;;;;;;12.13;2.53;;;;;;;-145.18;100.00;46808.84;5043801;28;20080;-81
2023/12/26 10:58:19;;;;;;;12.30;1.60;;;;;;;-145.18;100.00;46806.91;5044238;28;20033;-85
2023/12/26 13:52:54;;;;;;;9.07;1.40;;;;;;;-145.18;100.00;46783.47;5041083;28;20039;-87